sensor_id;sensor_type;location;lat;lon;timestamp;P1;durP1;ratioP1;P2;durP2;ratioP2
6185;SDS011;3126;52.738;8.316;2023-05-16T00:01:03;5.38;;;1.90;;
6185;SDS011;3126;52.738;8.316;2023-05-16T00:06:04;5.20;;;1.73;;
6185;SDS011;3126;52.738;8.316;2023-05-16T00:11:05;3.13;;;1.52;;
6185;SDS011;3126;52.738;8.316;2023-05-16T00:16:06;4.50;;;2.17;;
6185;SDS011;3126;52.738;8.316;2023-05-16T00:21:07;3.03;;;1.88;;
6185;SDS011;3126;52.738;8.316;2023-05-16T00:26:08;5.35;;;2.03;;
6185;SDS011;3126;52.738;8.316;2023-05-16T00:31:09;6.18;;;2.35;;
6185;SDS011;3126;52.738;8.316;2023-05-16T00:36:10;6.13;;;1.77;;
6185;SDS011;3126;52.738;8.316;2023-05-16T00:41:11;6.22;;;2.00;;
6185;SDS011;3126;52.738;8.316;2023-05-16T00:46:11;4.40;;;2.30;;
6185;SDS011;3126;52.738;8.316;2023-05-16T00:51:12;5.30;;;2.10;;
6185;SDS011;3126;52.738;8.316;2023-05-16T00:56:13;7.22;;;2.22;;
6185;SDS011;3126;52.738;8.316;2023-05-16T01:01:16;7.88;;;2.13;;
6185;SDS011;3126;52.738;8.316;2023-05-16T01:06:18;5.63;;;2.22;;
6185;SDS011;3126;52.738;8.316;2023-05-16T01:11:27;6.75;;;2.05;;
6185;SDS011;3126;52.738;8.316;2023-05-16T01:21:41;8.68;;;2.03;;
6185;SDS011;3126;52.738;8.316;2023-05-16T01:26:42;6.07;;;1.65;;
6185;SDS011;3126;52.738;8.316;2023-05-16T01:31:44;6.18;;;2.88;;
6185;SDS011;3126;52.738;8.316;2023-05-16T01:36:56;8.85;;;2.97;;
6185;SDS011;3126;52.738;8.316;2023-05-16T01:42:02;4.35;;;2.13;;
6185;SDS011;3126;52.738;8.316;2023-05-16T01:47:10;10.68;;;2.45;;
6185;SDS011;3126;52.738;8.316;2023-05-16T01:52:14;9.13;;;2.92;;
6185;SDS011;3126;52.738;8.316;2023-05-16T01:57:15;12.57;;;2.50;;
6185;SDS011;3126;52.738;8.316;2023-05-16T02:02:17;5.68;;;2.15;;
6185;SDS011;3126;52.738;8.316;2023-05-16T02:07:18;11.38;;;2.40;;
6185;SDS011;3126;52.738;8.316;2023-05-16T02:12:19;8.32;;;2.22;;
6185;SDS011;3126;52.738;8.316;2023-05-16T02:17:20;10.23;;;2.75;;
6185;SDS011;3126;52.738;8.316;2023-05-16T02:22:21;9.93;;;2.50;;
6185;SDS011;3126;52.738;8.316;2023-05-16T02:27:22;12.95;;;2.88;;
6185;SDS011;3126;52.738;8.316;2023-05-16T02:32:23;8.32;;;3.08;;
6185;SDS011;3126;52.738;8.316;2023-05-16T02:37:25;11.98;;;2.60;;
6185;SDS011;3126;52.738;8.316;2023-05-16T02:42:26;12.35;;;2.10;;
6185;SDS011;3126;52.738;8.316;2023-05-16T02:47:27;7.95;;;2.33;;
6185;SDS011;3126;52.738;8.316;2023-05-16T02:52:28;11.02;;;2.60;;
6185;SDS011;3126;52.738;8.316;2023-05-16T02:57:29;8.93;;;2.47;;
6185;SDS011;3126;52.738;8.316;2023-05-16T03:02:29;13.48;;;2.55;;
6185;SDS011;3126;52.738;8.316;2023-05-16T03:07:30;8.32;;;2.28;;
6185;SDS011;3126;52.738;8.316;2023-05-16T03:12:31;10.85;;;2.08;;
6185;SDS011;3126;52.738;8.316;2023-05-16T03:17:32;10.45;;;1.83;;
6185;SDS011;3126;52.738;8.316;2023-05-16T03:22:34;8.85;;;1.73;;
6185;SDS011;3126;52.738;8.316;2023-05-16T03:27:34;9.60;;;1.90;;
6185;SDS011;3126;52.738;8.316;2023-05-16T03:32:36;8.50;;;2.38;;
6185;SDS011;3126;52.738;8.316;2023-05-16T03:37:37;11.07;;;2.15;;
6185;SDS011;3126;52.738;8.316;2023-05-16T03:42:39;10.88;;;2.25;;
6185;SDS011;3126;52.738;8.316;2023-05-16T03:47:40;11.82;;;1.90;;
6185;SDS011;3126;52.738;8.316;2023-05-16T03:52:41;9.20;;;2.03;;
6185;SDS011;3126;52.738;8.316;2023-05-16T03:57:43;4.72;;;1.45;;
6185;SDS011;3126;52.738;8.316;2023-05-16T04:02:44;10.32;;;1.90;;
6185;SDS011;3126;52.738;8.316;2023-05-16T04:07:45;6.72;;;1.88;;
6185;SDS011;3126;52.738;8.316;2023-05-16T04:12:46;13.75;;;2.40;;
6185;SDS011;3126;52.738;8.316;2023-05-16T04:17:47;9.10;;;2.60;;
6185;SDS011;3126;52.738;8.316;2023-05-16T04:22:48;9.63;;;2.75;;
6185;SDS011;3126;52.738;8.316;2023-05-16T04:27:49;15.15;;;2.67;;
6185;SDS011;3126;52.738;8.316;2023-05-16T04:32:51;7.88;;;1.83;;
6185;SDS011;3126;52.738;8.316;2023-05-16T04:37:52;7.05;;;1.70;;
6185;SDS011;3126;52.738;8.316;2023-05-16T04:42:53;11.13;;;3.15;;
6185;SDS011;3126;52.738;8.316;2023-05-16T04:47:54;10.50;;;1.83;;
6185;SDS011;3126;52.738;8.316;2023-05-16T04:52:55;7.72;;;1.73;;
6185;SDS011;3126;52.738;8.316;2023-05-16T04:57:56;8.15;;;1.90;;
6185;SDS011;3126;52.738;8.316;2023-05-16T05:02:57;8.10;;;2.25;;
6185;SDS011;3126;52.738;8.316;2023-05-16T05:07:58;10.65;;;1.65;;
6185;SDS011;3126;52.738;8.316;2023-05-16T05:13:00;9.38;;;1.60;;
6185;SDS011;3126;52.738;8.316;2023-05-16T05:18:01;6.38;;;1.88;;
6185;SDS011;3126;52.738;8.316;2023-05-16T05:23:01;6.78;;;1.95;;
6185;SDS011;3126;52.738;8.316;2023-05-16T05:28:03;9.65;;;1.83;;
6185;SDS011;3126;52.738;8.316;2023-05-16T05:33:04;7.88;;;2.05;;
6185;SDS011;3126;52.738;8.316;2023-05-16T05:38:05;7.68;;;2.10;;
6185;SDS011;3126;52.738;8.316;2023-05-16T05:43:06;7.85;;;1.52;;
6185;SDS011;3126;52.738;8.316;2023-05-16T05:48:07;6.32;;;1.67;;
6185;SDS011;3126;52.738;8.316;2023-05-16T05:53:08;10.25;;;2.05;;
6185;SDS011;3126;52.738;8.316;2023-05-16T05:58:09;6.90;;;1.90;;
6185;SDS011;3126;52.738;8.316;2023-05-16T06:03:09;6.43;;;1.63;;
6185;SDS011;3126;52.738;8.316;2023-05-16T06:08:10;9.75;;;2.55;;
6185;SDS011;3126;52.738;8.316;2023-05-16T06:13:11;14.52;;;3.70;;
6185;SDS011;3126;52.738;8.316;2023-05-16T06:18:12;8.55;;;1.90;;
6185;SDS011;3126;52.738;8.316;2023-05-16T06:23:13;9.85;;;1.80;;
6185;SDS011;3126;52.738;8.316;2023-05-16T06:28:14;8.27;;;1.73;;
6185;SDS011;3126;52.738;8.316;2023-05-16T06:33:15;5.15;;;1.33;;
6185;SDS011;3126;52.738;8.316;2023-05-16T06:38:17;8.23;;;1.70;;
6185;SDS011;3126;52.738;8.316;2023-05-16T06:43:18;11.65;;;1.60;;
6185;SDS011;3126;52.738;8.316;2023-05-16T06:48:19;6.35;;;1.48;;
6185;SDS011;3126;52.738;8.316;2023-05-16T06:53:20;6.00;;;1.23;;
6185;SDS011;3126;52.738;8.316;2023-05-16T06:58:21;5.10;;;1.40;;
6185;SDS011;3126;52.738;8.316;2023-05-16T07:03:22;4.93;;;1.17;;
6185;SDS011;3126;52.738;8.316;2023-05-16T07:08:24;8.02;;;1.55;;
6185;SDS011;3126;52.738;8.316;2023-05-16T07:13:25;11.90;;;1.52;;
6185;SDS011;3126;52.738;8.316;2023-05-16T07:18:26;7.72;;;1.50;;
6185;SDS011;3126;52.738;8.316;2023-05-16T07:23:27;7.38;;;1.60;;
6185;SDS011;3126;52.738;8.316;2023-05-16T07:28:28;6.40;;;1.20;;
6185;SDS011;3126;52.738;8.316;2023-05-16T07:33:29;4.68;;;1.15;;
6185;SDS011;3126;52.738;8.316;2023-05-16T07:38:30;7.47;;;1.50;;
6185;SDS011;3126;52.738;8.316;2023-05-16T07:43:30;3.05;;;1.00;;
6185;SDS011;3126;52.738;8.316;2023-05-16T07:48:34;5.65;;;1.48;;
6185;SDS011;3126;52.738;8.316;2023-05-16T07:53:35;5.18;;;1.10;;
6185;SDS011;3126;52.738;8.316;2023-05-16T07:58:36;6.63;;;1.17;;
6185;SDS011;3126;52.738;8.316;2023-05-16T08:03:37;6.55;;;1.67;;
6185;SDS011;3126;52.738;8.316;2023-05-16T08:08:38;2.75;;;1.33;;
6185;SDS011;3126;52.738;8.316;2023-05-16T08:13:39;6.35;;;1.73;;
6185;SDS011;3126;52.738;8.316;2023-05-16T08:18:40;4.55;;;1.33;;
6185;SDS011;3126;52.738;8.316;2023-05-16T08:23:42;8.15;;;1.30;;
6185;SDS011;3126;52.738;8.316;2023-05-16T08:28:43;4.75;;;1.50;;
6185;SDS011;3126;52.738;8.316;2023-05-16T08:33:44;3.38;;;1.38;;
6185;SDS011;3126;52.738;8.316;2023-05-16T08:38:45;6.40;;;2.25;;
6185;SDS011;3126;52.738;8.316;2023-05-16T08:43:46;5.38;;;1.52;;
6185;SDS011;3126;52.738;8.316;2023-05-16T08:48:48;3.63;;;1.20;;
6185;SDS011;3126;52.738;8.316;2023-05-16T08:53:53;2.72;;;1.33;;
6185;SDS011;3126;52.738;8.316;2023-05-16T08:58:57;5.53;;;0.77;;
6185;SDS011;3126;52.738;8.316;2023-05-16T09:03:58;1.73;;;0.85;;
6185;SDS011;3126;52.738;8.316;2023-05-16T09:09:00;6.40;;;1.13;;
6185;SDS011;3126;52.738;8.316;2023-05-16T09:14:03;1.80;;;0.90;;
6185;SDS011;3126;52.738;8.316;2023-05-16T09:19:06;2.05;;;1.35;;
6185;SDS011;3126;52.738;8.316;2023-05-16T09:24:08;5.07;;;1.60;;
6185;SDS011;3126;52.738;8.316;2023-05-16T09:29:12;4.53;;;1.20;;
6185;SDS011;3126;52.738;8.316;2023-05-16T09:34:13;4.35;;;1.20;;
6185;SDS011;3126;52.738;8.316;2023-05-16T09:39:14;3.42;;;1.10;;
6185;SDS011;3126;52.738;8.316;2023-05-16T09:44:16;3.00;;;1.02;;
6185;SDS011;3126;52.738;8.316;2023-05-16T09:49:17;1.33;;;0.98;;
6185;SDS011;3126;52.738;8.316;2023-05-16T09:54:28;3.42;;;1.25;;
6185;SDS011;3126;52.738;8.316;2023-05-16T09:59:37;7.47;;;1.15;;
6185;SDS011;3126;52.738;8.316;2023-05-16T10:04:40;3.00;;;0.77;;
6185;SDS011;3126;52.738;8.316;2023-05-16T10:09:41;2.22;;;0.80;;
6185;SDS011;3126;52.738;8.316;2023-05-16T10:14:43;2.40;;;0.80;;
6185;SDS011;3126;52.738;8.316;2023-05-16T10:19:48;4.38;;;1.30;;
6185;SDS011;3126;52.738;8.316;2023-05-16T10:24:57;2.00;;;1.10;;
6185;SDS011;3126;52.738;8.316;2023-05-16T10:30:07;5.55;;;1.27;;
6185;SDS011;3126;52.738;8.316;2023-05-16T10:35:09;7.35;;;1.63;;
6185;SDS011;3126;52.738;8.316;2023-05-16T10:40:13;9.10;;;1.33;;
6185;SDS011;3126;52.738;8.316;2023-05-16T10:45:16;3.20;;;0.70;;
6185;SDS011;3126;52.738;8.316;2023-05-16T10:56:04;1.42;;;1.10;;
6185;SDS011;3126;52.738;8.316;2023-05-16T11:01:20;3.20;;;0.77;;
6185;SDS011;3126;52.738;8.316;2023-05-16T11:27:43;4.20;;;0.80;;
6185;SDS011;3126;52.738;8.316;2023-05-16T11:32:44;1.75;;;0.70;;
6185;SDS011;3126;52.738;8.316;2023-05-16T11:37:47;3.40;;;1.27;;
6185;SDS011;3126;52.738;8.316;2023-05-16T11:42:47;4.03;;;0.90;;
6185;SDS011;3126;52.738;8.316;2023-05-16T11:47:48;4.88;;;0.77;;
6185;SDS011;3126;52.738;8.316;2023-05-16T11:52:50;5.07;;;1.05;;
6185;SDS011;3126;52.738;8.316;2023-05-16T11:57:52;4.65;;;1.20;;
6185;SDS011;3126;52.738;8.316;2023-05-16T12:03:01;3.00;;;0.80;;
6185;SDS011;3126;52.738;8.316;2023-05-16T12:08:03;3.33;;;1.02;;
6185;SDS011;3126;52.738;8.316;2023-05-16T12:13:06;4.38;;;1.25;;
6185;SDS011;3126;52.738;8.316;2023-05-16T12:18:08;2.17;;;1.35;;
6185;SDS011;3126;52.738;8.316;2023-05-16T12:23:09;3.05;;;0.88;;
6185;SDS011;3126;52.738;8.316;2023-05-16T12:28:12;3.83;;;0.85;;
6185;SDS011;3126;52.738;8.316;2023-05-16T12:33:13;1.60;;;0.90;;
6185;SDS011;3126;52.738;8.316;2023-05-16T12:38:15;4.38;;;0.80;;
6185;SDS011;3126;52.738;8.316;2023-05-16T12:43:20;5.47;;;1.00;;
6185;SDS011;3126;52.738;8.316;2023-05-16T12:48:22;3.40;;;0.75;;
6185;SDS011;3126;52.738;8.316;2023-05-16T12:53:23;4.05;;;0.77;;
6185;SDS011;3126;52.738;8.316;2023-05-16T12:58:24;3.22;;;1.20;;
6185;SDS011;3126;52.738;8.316;2023-05-16T13:03:26;3.65;;;0.90;;
6185;SDS011;3126;52.738;8.316;2023-05-16T13:08:28;2.75;;;1.02;;
6185;SDS011;3126;52.738;8.316;2023-05-16T13:13:29;2.85;;;0.80;;
6185;SDS011;3126;52.738;8.316;2023-05-16T13:18:29;3.97;;;0.82;;
6185;SDS011;3126;52.738;8.316;2023-05-16T13:23:33;4.57;;;0.77;;
6185;SDS011;3126;52.738;8.316;2023-05-16T13:28:34;3.67;;;0.65;;
6185;SDS011;3126;52.738;8.316;2023-05-16T13:33:35;1.02;;;0.60;;
6185;SDS011;3126;52.738;8.316;2023-05-16T13:38:36;1.30;;;0.55;;
6185;SDS011;3126;52.738;8.316;2023-05-16T13:43:37;5.70;;;0.90;;
6185;SDS011;3126;52.738;8.316;2023-05-16T13:48:38;1.60;;;0.47;;
6185;SDS011;3126;52.738;8.316;2023-05-16T13:53:42;1.65;;;0.60;;
6185;SDS011;3126;52.738;8.316;2023-05-16T13:58:43;2.00;;;0.82;;
6185;SDS011;3126;52.738;8.316;2023-05-16T14:03:43;3.92;;;1.15;;
6185;SDS011;3126;52.738;8.316;2023-05-16T14:08:44;6.72;;;1.15;;
6185;SDS011;3126;52.738;8.316;2023-05-16T14:13:45;4.80;;;1.10;;
6185;SDS011;3126;52.738;8.316;2023-05-16T14:18:45;4.32;;;1.40;;
6185;SDS011;3126;52.738;8.316;2023-05-16T14:23:46;5.93;;;1.10;;
6185;SDS011;3126;52.738;8.316;2023-05-16T14:28:47;3.33;;;1.30;;
6185;SDS011;3126;52.738;8.316;2023-05-16T14:33:50;4.97;;;1.30;;
6185;SDS011;3126;52.738;8.316;2023-05-16T14:38:51;6.68;;;1.30;;
6185;SDS011;3126;52.738;8.316;2023-05-16T14:43:51;5.60;;;1.60;;
6185;SDS011;3126;52.738;8.316;2023-05-16T14:48:54;7.18;;;1.60;;
6185;SDS011;3126;52.738;8.316;2023-05-16T14:53:54;5.68;;;1.75;;
6185;SDS011;3126;52.738;8.316;2023-05-16T14:58:55;4.93;;;1.40;;
6185;SDS011;3126;52.738;8.316;2023-05-16T15:03:56;5.10;;;1.70;;
6185;SDS011;3126;52.738;8.316;2023-05-16T15:08:56;9.40;;;2.30;;
6185;SDS011;3126;52.738;8.316;2023-05-16T15:13:57;10.02;;;3.03;;
6185;SDS011;3126;52.738;8.316;2023-05-16T15:18:59;6.72;;;2.47;;
6185;SDS011;3126;52.738;8.316;2023-05-16T15:24:01;6.38;;;2.08;;
6185;SDS011;3126;52.738;8.316;2023-05-16T15:29:01;6.15;;;2.10;;
6185;SDS011;3126;52.738;8.316;2023-05-16T15:34:02;3.55;;;2.08;;
6185;SDS011;3126;52.738;8.316;2023-05-16T15:39:02;5.40;;;2.42;;
6185;SDS011;3126;52.738;8.316;2023-05-16T15:44:03;6.15;;;2.08;;
6185;SDS011;3126;52.738;8.316;2023-05-16T15:49:04;5.95;;;2.08;;
6185;SDS011;3126;52.738;8.316;2023-05-16T15:54:06;5.15;;;2.30;;
6185;SDS011;3126;52.738;8.316;2023-05-16T15:59:07;5.85;;;2.70;;
6185;SDS011;3126;52.738;8.316;2023-05-16T16:04:08;8.85;;;2.67;;
6185;SDS011;3126;52.738;8.316;2023-05-16T16:09:09;3.83;;;2.67;;
6185;SDS011;3126;52.738;8.316;2023-05-16T16:14:10;7.10;;;3.05;;
6185;SDS011;3126;52.738;8.316;2023-05-16T16:19:10;9.95;;;3.13;;
6185;SDS011;3126;52.738;8.316;2023-05-16T16:24:11;8.02;;;2.95;;
6185;SDS011;3126;52.738;8.316;2023-05-16T16:29:12;7.40;;;3.20;;
6185;SDS011;3126;52.738;8.316;2023-05-16T16:34:13;10.73;;;3.00;;
6185;SDS011;3126;52.738;8.316;2023-05-16T16:39:13;8.23;;;2.97;;
6185;SDS011;3126;52.738;8.316;2023-05-16T16:44:15;8.80;;;3.70;;
6185;SDS011;3126;52.738;8.316;2023-05-16T16:49:16;3.50;;;2.47;;
6185;SDS011;3126;52.738;8.316;2023-05-16T16:54:18;10.35;;;3.20;;
6185;SDS011;3126;52.738;8.316;2023-05-16T16:59:19;8.38;;;3.03;;
6185;SDS011;3126;52.738;8.316;2023-05-16T17:04:20;6.03;;;2.92;;
6185;SDS011;3126;52.738;8.316;2023-05-16T17:09:21;6.82;;;3.15;;
6185;SDS011;3126;52.738;8.316;2023-05-16T17:14:22;4.45;;;2.63;;
6185;SDS011;3126;52.738;8.316;2023-05-16T17:19:22;6.90;;;2.95;;
6185;SDS011;3126;52.738;8.316;2023-05-16T17:24:23;5.30;;;2.50;;
6185;SDS011;3126;52.738;8.316;2023-05-16T17:29:23;7.68;;;3.78;;
6185;SDS011;3126;52.738;8.316;2023-05-16T17:34:24;7.75;;;3.40;;
6185;SDS011;3126;52.738;8.316;2023-05-16T17:39:26;7.22;;;3.00;;
6185;SDS011;3126;52.738;8.316;2023-05-16T17:44:27;7.97;;;4.00;;
6185;SDS011;3126;52.738;8.316;2023-05-16T17:49:27;8.15;;;3.08;;
6185;SDS011;3126;52.738;8.316;2023-05-16T17:54:28;4.75;;;2.47;;
6185;SDS011;3126;52.738;8.316;2023-05-16T17:59:30;9.43;;;3.47;;
6185;SDS011;3126;52.738;8.316;2023-05-16T18:04:31;7.43;;;2.80;;
6185;SDS011;3126;52.738;8.316;2023-05-16T18:09:33;5.15;;;2.25;;
6185;SDS011;3126;52.738;8.316;2023-05-16T18:14:34;8.63;;;2.63;;
6185;SDS011;3126;52.738;8.316;2023-05-16T18:19:35;3.42;;;2.45;;
6185;SDS011;3126;52.738;8.316;2023-05-16T18:24:36;3.83;;;1.95;;
6185;SDS011;3126;52.738;8.316;2023-05-16T18:29:36;6.45;;;2.03;;
6185;SDS011;3126;52.738;8.316;2023-05-16T18:34:37;5.15;;;2.30;;
6185;SDS011;3126;52.738;8.316;2023-05-16T18:39:38;4.80;;;2.53;;
6185;SDS011;3126;52.738;8.316;2023-05-16T18:44:43;6.40;;;2.13;;
6185;SDS011;3126;52.738;8.316;2023-05-16T18:49:44;5.60;;;2.40;;
6185;SDS011;3126;52.738;8.316;2023-05-16T18:54:45;6.15;;;2.13;;
6185;SDS011;3126;52.738;8.316;2023-05-16T18:59:45;5.03;;;2.30;;
6185;SDS011;3126;52.738;8.316;2023-05-16T19:04:46;6.07;;;2.47;;
6185;SDS011;3126;52.738;8.316;2023-05-16T19:09:46;5.93;;;2.58;;
6185;SDS011;3126;52.738;8.316;2023-05-16T19:14:47;3.78;;;1.73;;
6185;SDS011;3126;52.738;8.316;2023-05-16T19:19:48;5.55;;;2.17;;
6185;SDS011;3126;52.738;8.316;2023-05-16T19:24:49;6.63;;;1.70;;
6185;SDS011;3126;52.738;8.316;2023-05-16T19:29:50;4.10;;;2.25;;
6185;SDS011;3126;52.738;8.316;2023-05-16T19:34:53;5.25;;;2.45;;
6185;SDS011;3126;52.738;8.316;2023-05-16T19:39:54;6.82;;;2.83;;
6185;SDS011;3126;52.738;8.316;2023-05-16T19:44:55;5.30;;;3.08;;
6185;SDS011;3126;52.738;8.316;2023-05-16T19:49:56;7.28;;;3.40;;
6185;SDS011;3126;52.738;8.316;2023-05-16T19:54:57;4.90;;;2.20;;
6185;SDS011;3126;52.738;8.316;2023-05-16T19:59:58;4.85;;;2.10;;
6185;SDS011;3126;52.738;8.316;2023-05-16T20:04:59;4.40;;;2.55;;
6185;SDS011;3126;52.738;8.316;2023-05-16T20:10:00;4.60;;;2.17;;
6185;SDS011;3126;52.738;8.316;2023-05-16T20:15:02;3.40;;;2.10;;
6185;SDS011;3126;52.738;8.316;2023-05-16T20:20:04;3.85;;;2.28;;
6185;SDS011;3126;52.738;8.316;2023-05-16T20:25:06;5.88;;;2.20;;
6185;SDS011;3126;52.738;8.316;2023-05-16T20:30:09;5.40;;;2.00;;
6185;SDS011;3126;52.738;8.316;2023-05-16T20:35:10;4.78;;;2.33;;
6185;SDS011;3126;52.738;8.316;2023-05-16T20:40:11;4.78;;;2.67;;
6185;SDS011;3126;52.738;8.316;2023-05-16T20:45:12;6.18;;;2.58;;
6185;SDS011;3126;52.738;8.316;2023-05-16T20:50:14;5.00;;;1.73;;
6185;SDS011;3126;52.738;8.316;2023-05-16T20:55:15;6.22;;;2.38;;
6185;SDS011;3126;52.738;8.316;2023-05-16T21:00:16;4.15;;;1.95;;
6185;SDS011;3126;52.738;8.316;2023-05-16T21:05:17;3.63;;;1.80;;
6185;SDS011;3126;52.738;8.316;2023-05-16T21:10:20;5.53;;;2.22;;
6185;SDS011;3126;52.738;8.316;2023-05-16T21:15:21;7.40;;;2.00;;
6185;SDS011;3126;52.738;8.316;2023-05-16T21:20:22;6.03;;;2.50;;
6185;SDS011;3126;52.738;8.316;2023-05-16T21:25:23;6.35;;;1.83;;
6185;SDS011;3126;52.738;8.316;2023-05-16T21:30:24;5.20;;;1.98;;
6185;SDS011;3126;52.738;8.316;2023-05-16T21:35:25;3.67;;;2.17;;
6185;SDS011;3126;52.738;8.316;2023-05-16T21:40:27;4.32;;;2.20;;
6185;SDS011;3126;52.738;8.316;2023-05-16T21:45:28;6.45;;;2.50;;
6185;SDS011;3126;52.738;8.316;2023-05-16T21:50:29;3.90;;;2.47;;
6185;SDS011;3126;52.738;8.316;2023-05-16T21:55:32;3.65;;;2.30;;
6185;SDS011;3126;52.738;8.316;2023-05-16T22:00:32;5.38;;;2.35;;
6185;SDS011;3126;52.738;8.316;2023-05-16T22:05:35;4.50;;;1.98;;
6185;SDS011;3126;52.738;8.316;2023-05-16T22:10:36;7.43;;;2.40;;
6185;SDS011;3126;52.738;8.316;2023-05-16T22:15:37;7.25;;;2.80;;
6185;SDS011;3126;52.738;8.316;2023-05-16T22:20:38;4.65;;;2.60;;
6185;SDS011;3126;52.738;8.316;2023-05-16T22:25:39;7.70;;;3.03;;
6185;SDS011;3126;52.738;8.316;2023-05-16T22:30:40;12.00;;;3.08;;
6185;SDS011;3126;52.738;8.316;2023-05-16T22:35:42;5.28;;;2.78;;
6185;SDS011;3126;52.738;8.316;2023-05-16T22:40:43;7.03;;;2.83;;
6185;SDS011;3126;52.738;8.316;2023-05-16T22:45:45;9.52;;;3.30;;
6185;SDS011;3126;52.738;8.316;2023-05-16T22:50:46;6.45;;;2.85;;
6185;SDS011;3126;52.738;8.316;2023-05-16T22:55:47;6.53;;;2.83;;
6185;SDS011;3126;52.738;8.316;2023-05-16T23:00:48;11.13;;;3.90;;
6185;SDS011;3126;52.738;8.316;2023-05-16T23:05:49;10.40;;;2.80;;
6185;SDS011;3126;52.738;8.316;2023-05-16T23:10:50;9.77;;;3.05;;
6185;SDS011;3126;52.738;8.316;2023-05-16T23:15:51;9.02;;;4.03;;
6185;SDS011;3126;52.738;8.316;2023-05-16T23:20:52;10.43;;;3.67;;
6185;SDS011;3126;52.738;8.316;2023-05-16T23:25:52;17.13;;;4.13;;
6185;SDS011;3126;52.738;8.316;2023-05-16T23:30:53;10.43;;;3.97;;
6185;SDS011;3126;52.738;8.316;2023-05-16T23:35:55;13.23;;;3.97;;
6185;SDS011;3126;52.738;8.316;2023-05-16T23:40:56;13.32;;;4.05;;
6185;SDS011;3126;52.738;8.316;2023-05-16T23:45:57;12.30;;;4.20;;
6185;SDS011;3126;52.738;8.316;2023-05-16T23:50:58;13.25;;;3.63;;
6185;SDS011;3126;52.738;8.316;2023-05-16T23:55:59;13.63;;;5.05;;
